sensor_id;sensor_type;location;lat;lon;timestamp;pressure;altitude;pressure_sealevel;temperature;humidity
13968;BME280;39536;52.198;9.920;2023-04-27T00:01:05;101062.78;;;6.51;100.00
13968;BME280;39536;52.198;9.920;2023-04-27T00:03:32;101057.56;;;6.61;100.00
13968;BME280;39536;52.198;9.920;2023-04-27T00:05:59;101060.06;;;6.69;100.00
13968;BME280;39536;52.198;9.920;2023-04-27T00:08:26;101063.50;;;6.72;100.00
13968;BME280;39536;52.198;9.920;2023-04-27T00:10:52;101063.63;;;6.59;100.00
13968;BME280;39536;52.198;9.920;2023-04-27T00:13:19;101058.63;;;6.33;100.00
13968;BME280;39536;52.198;9.920;2023-04-27T00:15:45;101059.53;;;6.25;100.00
13968;BME280;39536;52.198;9.920;2023-04-27T00:18:12;101059.53;;;6.24;100.00
13968;BME280;39536;52.198;9.920;2023-04-27T00:20:39;101058.59;;;6.34;100.00
13968;BME280;39536;52.198;9.920;2023-04-27T00:23:06;101058.63;;;6.33;100.00
13968;BME280;39536;52.198;9.920;2023-04-27T00:25:33;101063.84;;;6.25;100.00
13968;BME280;39536;52.198;9.920;2023-04-27T00:27:59;101067.31;;;6.22;100.00
13968;BME280;39536;52.198;9.920;2023-04-27T00:30:26;101063.88;;;6.23;100.00
13968;BME280;39536;52.198;9.920;2023-04-27T00:32:53;101061.25;;;6.30;100.00
13968;BME280;39536;52.198;9.920;2023-04-27T00:35:19;101058.53;;;6.46;100.00
13968;BME280;39536;52.198;9.920;2023-04-27T00:37:46;101056.03;;;6.36;100.00
13968;BME280;39536;52.198;9.920;2023-04-27T00:40:13;101066.34;;;6.39;100.00
13968;BME280;39536;52.198;9.920;2023-04-27T00:42:40;101065.50;;;6.37;100.00
13968;BME280;39536;52.198;9.920;2023-04-27T00:45:08;101064.63;;;6.35;100.00
13968;BME280;39536;52.198;9.920;2023-04-27T00:47:35;101064.72;;;6.22;100.00
13968;BME280;39536;52.198;9.920;2023-04-27T00:50:02;101063.88;;;6.19;100.00
13968;BME280;39536;52.198;9.920;2023-04-27T00:52:32;101063.09;;;6.11;100.00
13968;BME280;39536;52.198;9.920;2023-04-27T00:55:01;101069.03;;;6.22;100.00
13968;BME280;39536;52.198;9.920;2023-04-27T00:57:29;101067.28;;;6.30;100.00
13968;BME280;39536;52.198;9.920;2023-04-27T00:59:56;101068.06;;;6.40;100.00
13968;BME280;39536;52.198;9.920;2023-04-27T01:02:22;101065.44;;;6.43;100.00
13968;BME280;39536;52.198;9.920;2023-04-27T01:04:49;101070.59;;;6.46;100.00
13968;BME280;39536;52.198;9.920;2023-04-27T01:07:16;101069.78;;;6.39;100.00
13968;BME280;39536;52.198;9.920;2023-04-27T01:09:42;101062.94;;;6.29;100.00
13968;BME280;39536;52.198;9.920;2023-04-27T01:12:09;101072.44;;;6.29;100.00
13968;BME280;39536;52.198;9.920;2023-04-27T01:14:37;101072.50;;;6.19;100.00
13968;BME280;39536;52.198;9.920;2023-04-27T01:17:03;101075.13;;;6.12;100.00
13968;BME280;39536;52.198;9.920;2023-04-27T01:19:30;101075.97;;;6.15;100.00
13968;BME280;39536;52.198;9.920;2023-04-27T01:21:57;101072.56;;;6.12;100.00
13968;BME280;39536;52.198;9.920;2023-04-27T01:24:25;101078.56;;;6.15;100.00
13968;BME280;39536;52.198;9.920;2023-04-27T01:26:51;101082.00;;;6.20;100.00
13968;BME280;39536;52.198;9.920;2023-04-27T01:29:18;101073.41;;;6.12;100.00
13968;BME280;39536;52.198;9.920;2023-04-27T01:31:45;101085.50;;;6.09;100.00
13968;BME280;39536;52.198;9.920;2023-04-27T01:34:12;101082.91;;;6.09;100.00
13968;BME280;39536;52.198;9.920;2023-04-27T01:36:38;101083.84;;;5.94;100.00
13968;BME280;39536;52.198;9.920;2023-04-27T01:39:04;101089.81;;;6.07;100.00
13968;BME280;39536;52.198;9.920;2023-04-27T01:41:34;101084.66;;;6.05;100.00
13968;BME280;39536;52.198;9.920;2023-04-27T01:44:01;101093.25;;;6.12;100.00
13968;BME280;39536;52.198;9.920;2023-04-27T01:46:27;101092.47;;;5.82;100.00
13968;BME280;39536;52.198;9.920;2023-04-27T01:48:54;101095.06;;;5.82;100.00
13968;BME280;39536;52.198;9.920;2023-04-27T01:51:20;101095.97;;;5.79;100.00
13968;BME280;39536;52.198;9.920;2023-04-27T01:53:47;101106.31;;;5.70;100.00
13968;BME280;39536;52.198;9.920;2023-04-27T01:56:13;101106.31;;;5.69;100.00
13968;BME280;39536;52.198;9.920;2023-04-27T01:58:41;101114.97;;;5.62;100.00
13968;BME280;39536;52.198;9.920;2023-04-27T02:01:07;101118.44;;;5.54;100.00
13968;BME280;39536;52.198;9.920;2023-04-27T02:03:34;101116.72;;;5.43;100.00
13968;BME280;39536;52.198;9.920;2023-04-27T02:06:01;101127.03;;;5.56;100.00
13968;BME280;39536;52.198;9.920;2023-04-27T02:08:27;101128.78;;;5.42;100.00
13968;BME280;39536;52.198;9.920;2023-04-27T02:10:53;101122.78;;;5.25;100.00
13968;BME280;39536;52.198;9.920;2023-04-27T02:13:20;101125.34;;;5.37;100.00
13968;BME280;39536;52.198;9.920;2023-04-27T02:15:48;101140.81;;;5.48;100.00
13968;BME280;39536;52.198;9.920;2023-04-27T02:18:14;101136.56;;;5.42;100.00
13968;BME280;39536;52.198;9.920;2023-04-27T02:20:41;101139.97;;;5.44;100.00
13968;BME280;39536;52.198;9.920;2023-04-27T02:23:07;101140.81;;;5.48;100.00
13968;BME280;39536;52.198;9.920;2023-04-27T02:25:35;101143.44;;;5.37;100.00
13968;BME280;39536;52.198;9.920;2023-04-27T02:28:02;101149.47;;;5.35;100.00
13968;BME280;39536;52.198;9.920;2023-04-27T02:30:28;101152.91;;;5.23;100.00
13968;BME280;39536;52.198;9.920;2023-04-27T02:32:57;101154.66;;;5.27;100.00
13968;BME280;39536;52.198;9.920;2023-04-27T02:35:24;101161.53;;;5.13;100.00
13968;BME280;39536;52.198;9.920;2023-04-27T02:37:50;101158.09;;;5.18;100.00
13968;BME280;39536;52.198;9.920;2023-04-27T02:40:17;101153.75;;;5.26;100.00
13968;BME280;39536;52.198;9.920;2023-04-27T02:42:43;101155.50;;;5.27;100.00
13968;BME280;39536;52.198;9.920;2023-04-27T02:45:10;101149.47;;;5.07;100.00
13968;BME280;39536;52.198;9.920;2023-04-27T02:47:37;101161.53;;;5.08;100.00
13968;BME280;39536;52.198;9.920;2023-04-27T02:50:05;101156.38;;;5.19;100.00
13968;BME280;39536;52.198;9.920;2023-04-27T02:52:32;101149.47;;;5.13;100.00
13968;BME280;39536;52.198;9.920;2023-04-27T02:54:59;101157.22;;;5.07;100.00
13968;BME280;39536;52.198;9.920;2023-04-27T02:57:26;101148.63;;;5.14;100.00
13968;BME280;39536;52.198;9.920;2023-04-27T02:59:52;101146.03;;;5.20;100.00
13968;BME280;39536;52.198;9.920;2023-04-27T03:02:19;101145.19;;;5.21;100.00
13968;BME280;39536;52.198;9.920;2023-04-27T03:04:45;101148.63;;;4.93;100.00
13968;BME280;39536;52.198;9.920;2023-04-27T03:07:14;101144.31;;;4.98;100.00
13968;BME280;39536;52.198;9.920;2023-04-27T03:09:40;101145.16;;;5.07;100.00
13968;BME280;39536;52.198;9.920;2023-04-27T03:12:07;101152.91;;;4.95;100.00
13968;BME280;39536;52.198;9.920;2023-04-27T03:14:33;101155.50;;;4.97;100.00
13968;BME280;39536;52.198;9.920;2023-04-27T03:17:00;101155.50;;;4.98;100.00
13968;BME280;39536;52.198;9.920;2023-04-27T03:19:27;101152.91;;;4.91;100.00
13968;BME280;39536;52.198;9.920;2023-04-27T03:21:53;101149.47;;;4.98;100.00
13968;BME280;39536;52.198;9.920;2023-04-27T03:24:21;101149.47;;;5.16;100.00
13968;BME280;39536;52.198;9.920;2023-04-27T03:26:49;101152.06;;;5.15;100.00
13968;BME280;39536;52.198;9.920;2023-04-27T03:29:16;101151.19;;;5.28;100.00
13968;BME280;39536;52.198;9.920;2023-04-27T03:31:42;101154.63;;;5.22;100.00
13968;BME280;39536;52.198;9.920;2023-04-27T03:34:09;101150.34;;;5.15;100.00
13968;BME280;39536;52.198;9.920;2023-04-27T03:36:36;101147.75;;;5.18;100.00
13968;BME280;39536;52.198;9.920;2023-04-27T03:39:02;101156.38;;;5.13;100.00
13968;BME280;39536;52.198;9.920;2023-04-27T03:41:30;101155.50;;;5.01;100.00
13968;BME280;39536;52.198;9.920;2023-04-27T03:43:56;101158.06;;;4.84;100.00
13968;BME280;39536;52.198;9.920;2023-04-27T03:46:23;101166.69;;;4.77;100.00
13968;BME280;39536;52.198;9.920;2023-04-27T03:48:49;101165.81;;;4.78;100.00
13968;BME280;39536;52.198;9.920;2023-04-27T03:51:16;101165.81;;;4.72;100.00
13968;BME280;39536;52.198;9.920;2023-04-27T03:53:43;101170.06;;;4.56;100.00
13968;BME280;39536;52.198;9.920;2023-04-27T03:56:10;101165.78;;;4.52;100.00
13968;BME280;39536;52.198;9.920;2023-04-27T03:58:38;101170.06;;;4.50;100.00
13968;BME280;39536;52.198;9.920;2023-04-27T04:01:04;101167.47;;;4.46;100.00
13968;BME280;39536;52.198;9.920;2023-04-27T04:03:34;101167.50;;;4.49;100.00
13968;BME280;39536;52.198;9.920;2023-04-27T04:06:00;101163.16;;;4.48;100.00
13968;BME280;39536;52.198;9.920;2023-04-27T04:08:27;101165.78;;;4.49;100.00
13968;BME280;39536;52.198;9.920;2023-04-27T04:10:55;101164.06;;;4.63;100.00
13968;BME280;39536;52.198;9.920;2023-04-27T04:13:21;101168.38;;;4.75;100.00
13968;BME280;39536;52.198;9.920;2023-04-27T04:15:49;101168.38;;;4.75;100.00
13968;BME280;39536;52.198;9.920;2023-04-27T04:18:16;101170.97;;;4.78;100.00
13968;BME280;39536;52.198;9.920;2023-04-27T04:20:42;101170.13;;;4.78;100.00
13968;BME280;39536;52.198;9.920;2023-04-27T04:23:08;101167.50;;;4.62;100.00
13968;BME280;39536;52.198;9.920;2023-04-27T04:25:36;101179.56;;;4.68;100.00
13968;BME280;39536;52.198;9.920;2023-04-27T04:28:04;101174.41;;;4.62;100.00
13968;BME280;39536;52.198;9.920;2023-04-27T04:30:31;101179.56;;;4.74;100.00
13968;BME280;39536;52.198;9.920;2023-04-27T04:32:59;101177.84;;;4.58;100.00
13968;BME280;39536;52.198;9.920;2023-04-27T04:35:25;101184.69;;;4.56;100.00
13968;BME280;39536;52.198;9.920;2023-04-27T04:37:52;101182.97;;;4.53;100.00
13968;BME280;39536;52.198;9.920;2023-04-27T04:40:18;101184.66;;;4.48;100.00
13968;BME280;39536;52.198;9.920;2023-04-27T04:42:45;101185.56;;;4.56;100.00
13968;BME280;39536;52.198;9.920;2023-04-27T04:45:12;101176.91;;;4.45;100.00
13968;BME280;39536;52.198;9.920;2023-04-27T04:47:39;101184.63;;;4.37;100.00
13968;BME280;39536;52.198;9.920;2023-04-27T04:50:07;101184.63;;;4.31;100.00
13968;BME280;39536;52.198;9.920;2023-04-27T04:52:34;101190.69;;;4.39;100.00
13968;BME280;39536;52.198;9.920;2023-04-27T04:55:03;101189.81;;;4.42;100.00
13968;BME280;39536;52.198;9.920;2023-04-27T04:57:29;101193.22;;;4.35;100.00
13968;BME280;39536;52.198;9.920;2023-04-27T04:59:56;101199.25;;;4.38;100.00
13968;BME280;39536;52.198;9.920;2023-04-27T05:02:22;101200.19;;;4.60;100.00
13968;BME280;39536;52.198;9.920;2023-04-27T05:04:49;101197.59;;;4.67;100.00
13968;BME280;39536;52.198;9.920;2023-04-27T05:07:18;101196.78;;;4.65;100.00
13968;BME280;39536;52.198;9.920;2023-04-27T05:09:45;101201.94;;;4.72;100.00
13968;BME280;39536;52.198;9.920;2023-04-27T05:12:11;101200.25;;;4.80;100.00
13968;BME280;39536;52.198;9.920;2023-04-27T05:14:37;101201.09;;;4.92;100.00
13968;BME280;39536;52.198;9.920;2023-04-27T05:17:04;101203.69;;;4.87;100.00
13968;BME280;39536;52.198;9.920;2023-04-27T05:19:30;101201.13;;;4.96;100.00
13968;BME280;39536;52.198;9.920;2023-04-27T05:21:57;101210.56;;;4.94;100.00
13968;BME280;39536;52.198;9.920;2023-04-27T05:24:25;101214.88;;;5.00;100.00
13968;BME280;39536;52.198;9.920;2023-04-27T05:26:52;101213.16;;;4.86;100.00
13968;BME280;39536;52.198;9.920;2023-04-27T05:29:19;101208.00;;;4.97;100.00
13968;BME280;39536;52.198;9.920;2023-04-27T05:31:45;101211.44;;;5.13;100.00
13968;BME280;39536;52.198;9.920;2023-04-27T05:34:12;101214.91;;;5.09;100.00
13968;BME280;39536;52.198;9.920;2023-04-27T05:36:38;101216.63;;;5.13;100.00
13968;BME280;39536;52.198;9.920;2023-04-27T05:39:05;101214.91;;;5.24;100.00
13968;BME280;39536;52.198;9.920;2023-04-27T05:41:33;101220.06;;;5.18;100.00
13968;BME280;39536;52.198;9.920;2023-04-27T05:43:59;101216.63;;;5.28;100.00
13968;BME280;39536;52.198;9.920;2023-04-27T05:46:32;101223.50;;;5.45;100.00
13968;BME280;39536;52.198;9.920;2023-04-27T05:48:58;101220.06;;;5.55;100.00
13968;BME280;39536;52.198;9.920;2023-04-27T05:51:25;101221.78;;;5.53;100.00
13968;BME280;39536;52.198;9.920;2023-04-27T05:53:53;101217.47;;;5.56;100.00
13968;BME280;39536;52.198;9.920;2023-04-27T05:56:19;101227.81;;;5.27;100.00
13968;BME280;39536;52.198;9.920;2023-04-27T05:58:47;101227.81;;;5.47;100.00
13968;BME280;39536;52.198;9.920;2023-04-27T06:01:14;101221.78;;;5.59;100.00
13968;BME280;39536;52.198;9.920;2023-04-27T06:03:40;101231.25;;;5.62;100.00
13968;BME280;39536;52.198;9.920;2023-04-27T06:06:06;101229.53;;;5.56;100.00
13968;BME280;39536;52.198;9.920;2023-04-27T06:08:33;101240.69;;;5.81;100.00
13968;BME280;39536;52.198;9.920;2023-04-27T06:11:01;101240.72;;;5.79;100.00
13968;BME280;39536;52.198;9.920;2023-04-27T06:13:29;101247.59;;;5.71;100.00
13968;BME280;39536;52.198;9.920;2023-04-27T06:15:58;101240.72;;;5.70;100.00
13968;BME280;39536;52.198;9.920;2023-04-27T06:18:24;101236.41;;;5.83;100.00
13968;BME280;39536;52.198;9.920;2023-04-27T06:20:51;101248.47;;;5.76;100.00
13968;BME280;39536;52.198;9.920;2023-04-27T06:23:17;101249.31;;;5.63;100.00
13968;BME280;39536;52.198;9.920;2023-04-27T06:25:44;101251.03;;;5.81;100.00
13968;BME280;39536;52.198;9.920;2023-04-27T06:28:10;101245.00;;;5.79;100.00
13968;BME280;39536;52.198;9.920;2023-04-27T06:30:36;101251.91;;;5.89;100.00
13968;BME280;39536;52.198;9.920;2023-04-27T06:33:04;101262.22;;;5.82;100.00
13968;BME280;39536;52.198;9.920;2023-04-27T06:35:31;101255.38;;;5.93;100.00
13968;BME280;39536;52.198;9.920;2023-04-27T06:37:57;101256.16;;;6.10;100.00
13968;BME280;39536;52.198;9.920;2023-04-27T06:40:24;101254.41;;;6.28;100.00
13968;BME280;39536;52.198;9.920;2023-04-27T06:42:51;101256.13;;;6.22;100.00
13968;BME280;39536;52.198;9.920;2023-04-27T06:45:17;101252.66;;;6.36;100.00
13968;BME280;39536;52.198;9.920;2023-04-27T06:47:44;101266.44;;;6.39;100.00
13968;BME280;39536;52.198;9.920;2023-04-27T06:50:13;101267.28;;;6.43;100.00
13968;BME280;39536;52.198;9.920;2023-04-27T06:52:54;101263.75;;;6.62;100.00
13968;BME280;39536;52.198;9.920;2023-04-27T06:55:20;101263.69;;;6.75;100.00
13968;BME280;39536;52.198;9.920;2023-04-27T06:57:47;101262.81;;;6.79;100.00
13968;BME280;39536;52.198;9.920;2023-04-27T07:00:14;101261.94;;;6.83;100.00
13968;BME280;39536;52.198;9.920;2023-04-27T07:02:41;101266.28;;;6.75;100.00
13968;BME280;39536;52.198;9.920;2023-04-27T07:05:08;101258.63;;;6.55;100.00
13968;BME280;39536;52.198;9.920;2023-04-27T07:07:36;101257.63;;;6.76;100.00
13968;BME280;39536;52.198;9.920;2023-04-27T07:10:03;101253.28;;;6.87;100.00
13968;BME280;39536;52.198;9.920;2023-04-27T07:12:30;101261.00;;;6.91;100.00
13968;BME280;39536;52.198;9.920;2023-04-27T07:14:56;101259.38;;;6.72;100.00
13968;BME280;39536;52.198;9.920;2023-04-27T07:17:23;101257.53;;;6.94;100.00
13968;BME280;39536;52.198;9.920;2023-04-27T07:19:49;101262.63;;;7.09;100.00
13968;BME280;39536;52.198;9.920;2023-04-27T07:22:16;101255.69;;;7.14;100.00
13968;BME280;39536;52.198;9.920;2023-04-27T07:24:44;101254.72;;;7.29;100.00
13968;BME280;39536;52.198;9.920;2023-04-27T07:27:10;101262.38;;;7.43;100.00
13968;BME280;39536;52.198;9.920;2023-04-27T07:29:37;101259.06;;;7.23;100.00
13968;BME280;39536;52.198;9.920;2023-04-27T07:32:05;101258.19;;;7.30;100.00
13968;BME280;39536;52.198;9.920;2023-04-27T07:34:31;101258.78;;;7.59;100.00
13968;BME280;39536;52.198;9.920;2023-04-27T07:36:58;101262.34;;;7.46;100.00
13968;BME280;39536;52.198;9.920;2023-04-27T07:39:24;101259.78;;;7.48;100.00
13968;BME280;39536;52.198;9.920;2023-04-27T07:41:53;101267.44;;;7.58;100.00
13968;BME280;39536;52.198;9.920;2023-04-27T07:44:20;101274.34;;;7.61;100.00
13968;BME280;39536;52.198;9.920;2023-04-27T07:46:46;101263.00;;;7.73;100.00
13968;BME280;39536;52.198;9.920;2023-04-27T07:49:13;101268.38;;;7.51;100.00
13968;BME280;39536;52.198;9.920;2023-04-27T07:51:40;101271.13;;;7.33;100.00
13968;BME280;39536;52.198;9.920;2023-04-27T07:54:07;101267.56;;;7.48;100.00
13968;BME280;39536;52.198;9.920;2023-04-27T07:56:33;101268.22;;;7.68;100.00
13968;BME280;39536;52.198;9.920;2023-04-27T07:59:01;101264.63;;;7.83;100.00
13968;BME280;39536;52.198;9.920;2023-04-27T08:01:28;101266.75;;;8.29;100.00
13968;BME280;39536;52.198;9.920;2023-04-27T08:03:54;101253.44;;;8.56;100.00
13968;BME280;39536;52.198;9.920;2023-04-27T08:06:27;101261.16;;;8.64;100.00
13968;BME280;39536;52.198;9.920;2023-04-27T08:09:28;101255.00;;;8.71;100.00
13968;BME280;39536;52.198;9.920;2023-04-27T08:11:54;101248.91;;;8.74;100.00
13968;BME280;39536;52.198;9.920;2023-04-27T08:14:23;101250.81;;;8.61;100.00
13968;BME280;39536;52.198;9.920;2023-04-27T08:16:50;101257.59;;;8.71;100.00
13968;BME280;39536;52.198;9.920;2023-04-27T08:19:17;101251.47;;;8.78;100.00
13968;BME280;39536;52.198;9.920;2023-04-27T08:21:43;101257.22;;;9.00;100.00
13968;BME280;39536;52.198;9.920;2023-04-27T08:24:10;101250.78;;;9.23;100.00
13968;BME280;39536;52.198;9.920;2023-04-27T08:26:36;101247.91;;;9.40;100.00
13968;BME280;39536;52.198;9.920;2023-04-27T08:29:03;101249.84;;;9.27;100.00
13968;BME280;39536;52.198;9.920;2023-04-27T08:31:31;101245.50;;;9.28;100.00
13968;BME280;39536;52.198;9.920;2023-04-27T08:33:58;101247.84;;;8.87;100.00
13968;BME280;39536;52.198;9.920;2023-04-27T08:36:24;101239.78;;;9.06;100.00
13968;BME280;39536;52.198;9.920;2023-04-27T08:38:53;101244.47;;;8.82;100.00
13968;BME280;39536;52.198;9.920;2023-04-27T08:41:20;101255.69;;;8.84;100.00
13968;BME280;39536;52.198;9.920;2023-04-27T08:43:47;101239.59;;;8.56;100.00
13968;BME280;39536;52.198;9.920;2023-04-27T08:46:17;101244.72;;;8.62;100.00
13968;BME280;39536;52.198;9.920;2023-04-27T08:48:45;101245.00;;;8.42;100.00
13968;BME280;39536;52.198;9.920;2023-04-27T08:51:13;101241.34;;;8.57;100.00
13968;BME280;39536;52.198;9.920;2023-04-27T08:53:44;101244.31;;;8.93;100.00
13968;BME280;39536;52.198;9.920;2023-04-27T08:56:12;101239.56;;;9.21;95.89
13968;BME280;39536;52.198;9.920;2023-04-27T08:58:39;101245.41;;;9.34;90.69
13968;BME280;39536;52.198;9.920;2023-04-27T09:01:06;101235.13;;;9.77;93.91
13968;BME280;39536;52.198;9.920;2023-04-27T09:03:33;101237.84;;;10.19;92.93
13968;BME280;39536;52.198;9.920;2023-04-27T09:06:01;101233.63;;;10.55;89.43
13968;BME280;39536;52.198;9.920;2023-04-27T09:08:28;101243.13;;;10.58;89.18
13968;BME280;39536;52.198;9.920;2023-04-27T09:10:54;101232.97;;;10.46;90.97
13968;BME280;39536;52.198;9.920;2023-04-27T09:13:21;101238.81;;;10.12;90.45
13968;BME280;39536;52.198;9.920;2023-04-27T09:15:48;101241.19;;;9.78;93.88
13968;BME280;39536;52.198;9.920;2023-04-27T09:18:17;101249.56;;;9.47;97.10
13968;BME280;39536;52.198;9.920;2023-04-27T09:20:45;101239.97;;;8.93;97.79
13968;BME280;39536;52.198;9.920;2023-04-27T09:23:32;101244.28;;;8.96;97.30
13968;BME280;39536;52.198;9.920;2023-04-27T09:26:00;101243.09;;;8.53;100.00
13968;BME280;39536;52.198;9.920;2023-04-27T09:28:50;101249.84;;;8.70;100.00
13968;BME280;39536;52.198;9.920;2023-04-27T09:31:34;101251.63;;;8.65;99.95
13968;BME280;39536;52.198;9.920;2023-04-27T09:34:02;101241.44;;;8.49;98.55
13968;BME280;39536;52.198;9.920;2023-04-27T09:36:29;101245.06;;;8.31;99.91
13968;BME280;39536;52.198;9.920;2023-04-27T09:39:00;101233.53;;;8.59;98.45
13968;BME280;39536;52.198;9.920;2023-04-27T09:41:28;101235.28;;;9.17;98.37
13968;BME280;39536;52.198;9.920;2023-04-27T09:43:57;101236.16;;;9.68;96.13
13968;BME280;39536;52.198;9.920;2023-04-27T09:46:25;101228.41;;;10.13;92.23
13968;BME280;39536;52.198;9.920;2023-04-27T09:48:53;101229.41;;;10.50;88.43
13968;BME280;39536;52.198;9.920;2023-04-27T09:51:21;101224.47;;;10.78;81.80
13968;BME280;39536;52.198;9.920;2023-04-27T09:53:50;101221.97;;;11.12;79.51
13968;BME280;39536;52.198;9.920;2023-04-27T09:56:27;101217.06;;;11.34;74.08
13968;BME280;39536;52.198;9.920;2023-04-27T10:01:50;101227.28;;;11.43;73.90
13968;BME280;39536;52.198;9.920;2023-04-27T10:04:38;101222.84;;;11.47;73.48
13968;BME280;39536;52.198;9.920;2023-04-27T10:07:10;101221.66;;;11.59;73.13
13968;BME280;39536;52.198;9.920;2023-04-27T10:09:40;101208.38;;;10.98;73.79
13968;BME280;39536;52.198;9.920;2023-04-27T10:12:16;101233.38;;;10.68;73.92
13968;BME280;39536;52.198;9.920;2023-04-27T10:14:50;101223.25;;;10.54;74.19
13968;BME280;39536;52.198;9.920;2023-04-27T10:17:18;101232.25;;;9.94;74.47
13968;BME280;39536;52.198;9.920;2023-04-27T10:19:53;101236.03;;;9.76;75.77
13968;BME280;39536;52.198;9.920;2023-04-27T10:22:20;101228.06;;;9.85;72.52
13968;BME280;39536;52.198;9.920;2023-04-27T10:24:48;101232.16;;;9.99;72.09
13968;BME280;39536;52.198;9.920;2023-04-27T10:27:18;101233.34;;;10.27;71.18
13968;BME280;39536;52.198;9.920;2023-04-27T10:29:46;101229.59;;;10.42;72.09
13968;BME280;39536;52.198;9.920;2023-04-27T10:32:18;101229.09;;;10.65;70.08
13968;BME280;39536;52.198;9.920;2023-04-27T10:34:47;101225.97;;;10.88;72.12
13968;BME280;39536;52.198;9.920;2023-04-27T10:37:16;101227.31;;;11.06;71.50
13968;BME280;39536;52.198;9.920;2023-04-27T10:39:44;101220.06;;;11.17;69.73
13968;BME280;39536;52.198;9.920;2023-04-27T10:42:11;101216.69;;;11.14;61.70
13968;BME280;39536;52.198;9.920;2023-04-27T10:44:39;101224.22;;;11.26;64.54
13968;BME280;39536;52.198;9.920;2023-04-27T10:47:13;101221.63;;;11.24;59.34
13968;BME280;39536;52.198;9.920;2023-04-27T10:49:40;101225.06;;;11.28;62.17
13968;BME280;39536;52.198;9.920;2023-04-27T10:52:06;101213.34;;;11.43;59.56
13968;BME280;39536;52.198;9.920;2023-04-27T10:54:34;101211.78;;;11.71;57.74
13968;BME280;39536;52.198;9.920;2023-04-27T10:57:02;101213.63;;;11.66;58.38
13968;BME280;39536;52.198;9.920;2023-04-27T10:59:29;101210.13;;;11.67;57.00
13968;BME280;39536;52.198;9.920;2023-04-27T11:01:57;101207.56;;;11.98;58.14
13968;BME280;39536;52.198;9.920;2023-04-27T11:04:34;101201.09;;;12.43;52.46
13968;BME280;39536;52.198;9.920;2023-04-27T11:07:00;101194.41;;;12.62;50.20
13968;BME280;39536;52.198;9.920;2023-04-27T11:09:28;101190.22;;;12.27;51.02
13968;BME280;39536;52.198;9.920;2023-04-27T11:11:55;101198.19;;;11.91;51.51
13968;BME280;39536;52.198;9.920;2023-04-27T11:14:22;101190.13;;;12.00;50.93
13968;BME280;39536;52.198;9.920;2023-04-27T11:16:49;101196.75;;;12.12;47.53
13968;BME280;39536;52.198;9.920;2023-04-27T11:19:16;101200.00;;;11.89;47.09
13968;BME280;39536;52.198;9.920;2023-04-27T11:21:43;101186.22;;;12.15;48.29
13968;BME280;39536;52.198;9.920;2023-04-27T11:24:10;101191.88;;;12.59;47.08
13968;BME280;39536;52.198;9.920;2023-04-27T11:26:36;101189.84;;;12.69;46.71
13968;BME280;39536;52.198;9.920;2023-04-27T11:29:05;101197.97;;;12.88;44.16
13968;BME280;39536;52.198;9.920;2023-04-27T11:31:39;101195.19;;;12.92;42.72
13968;BME280;39536;52.198;9.920;2023-04-27T11:34:07;101199.28;;;13.01;43.42
13968;BME280;39536;52.198;9.920;2023-04-27T11:36:38;101198.63;;;12.66;46.96
13968;BME280;39536;52.198;9.920;2023-04-27T11:39:05;101192.94;;;12.52;47.36
13968;BME280;39536;52.198;9.920;2023-04-27T11:41:32;101197.31;;;12.52;48.39
13968;BME280;39536;52.198;9.920;2023-04-27T11:44:03;101198.88;;;12.29;49.98
13968;BME280;39536;52.198;9.920;2023-04-27T11:46:32;101192.16;;;12.20;48.38
13968;BME280;39536;52.198;9.920;2023-04-27T11:49:01;101196.34;;;12.56;48.10
13968;BME280;39536;52.198;9.920;2023-04-27T11:51:28;101197.84;;;12.35;46.31
13968;BME280;39536;52.198;9.920;2023-04-27T11:54:00;101200.59;;;11.99;47.62
13968;BME280;39536;52.198;9.920;2023-04-27T11:56:33;101194.16;;;12.70;47.05
13968;BME280;39536;52.198;9.920;2023-04-27T11:59:00;101183.94;;;12.90;44.77
13968;BME280;39536;52.198;9.920;2023-04-27T12:01:27;101184.56;;;12.70;44.76
13968;BME280;39536;52.198;9.920;2023-04-27T12:03:57;101179.34;;;13.24;45.75
13968;BME280;39536;52.198;9.920;2023-04-27T12:06:27;101181.44;;;13.91;45.45
13968;BME280;39536;52.198;9.920;2023-04-27T12:08:56;101180.13;;;14.49;42.33
13968;BME280;39536;52.198;9.920;2023-04-27T12:11:25;101174.19;;;14.44;41.30
13968;BME280;39536;52.198;9.920;2023-04-27T12:13:52;101167.72;;;14.54;40.54
13968;BME280;39536;52.198;9.920;2023-04-27T12:16:19;101170.97;;;14.38;40.61
13968;BME280;39536;52.198;9.920;2023-04-27T12:18:46;101174.50;;;13.90;39.88
13968;BME280;39536;52.198;9.920;2023-04-27T12:21:16;101172.56;;;13.46;40.34
13968;BME280;39536;52.198;9.920;2023-04-27T12:23:43;101168.91;;;13.75;39.82
13968;BME280;39536;52.198;9.920;2023-04-27T12:26:12;101166.94;;;14.05;39.92
13968;BME280;39536;52.198;9.920;2023-04-27T12:28:38;101163.19;;;14.36;40.08
13968;BME280;39536;52.198;9.920;2023-04-27T12:31:05;101168.25;;;15.07;41.08
13968;BME280;39536;52.198;9.920;2023-04-27T12:33:44;101162.19;;;15.47;39.71
13968;BME280;39536;52.198;9.920;2023-04-27T12:36:15;101165.66;;;15.47;38.86
13968;BME280;39536;52.198;9.920;2023-04-27T12:38:42;101150.88;;;15.67;39.02
13968;BME280;39536;52.198;9.920;2023-04-27T12:41:08;101150.38;;;16.17;38.59
13968;BME280;39536;52.198;9.920;2023-04-27T12:43:36;101147.22;;;16.09;36.99
13968;BME280;39536;52.198;9.920;2023-04-27T12:46:05;101143.25;;;16.00;37.27
13968;BME280;39536;52.198;9.920;2023-04-27T12:48:31;101151.41;;;16.13;38.33
13968;BME280;39536;52.198;9.920;2023-04-27T12:50:58;101147.78;;;16.34;37.78
13968;BME280;39536;52.198;9.920;2023-04-27T12:53:25;101137.47;;;16.49;38.46
13968;BME280;39536;52.198;9.920;2023-04-27T12:55:51;101140.50;;;16.77;37.84